Time;durP1;ratioP1;P1;durP2;ratioP2;P2;SDS_P1;SDS_P2;PMS_P1;PMS_P2;Temp;Humidity;BMP_temperature;BMP_pressure;BME280_temperature;BME280_humidity;BME280_pressure;Samples;Min_cycle;Max_cycle;Signal;HPM_P1;HPM_P2
2021/03/26 00:02:08;;;;;;;;;;;;;;;3.58;75.76;101679.80;1788048;80;20168;-80
2021/03/26 00:04:37;;;;;;;;;;;;;;;3.62;75.76;101680.16;1787695;80;22244;-80
2021/03/26 00:07:07;;;;;;;;;;;;;;;3.64;75.73;101670.69;1787797;80;20235;-81
2021/03/26 00:09:38;;;;;;;;;;;;;;;3.67;75.66;101677.04;1789659;80;20291;-81
2021/03/26 00:12:28;;;;;;;;;;;;;;;3.68;75.47;101672.75;1788050;77;20280;-82
2021/03/26 00:15:54;;;;;;;;;;;;;;;;;;;;;
2021/03/26 00:18:53;;;;;;;;;;;;;;;3.63;76.36;101678.00;1940928;74;20212;-80
2021/03/26 00:21:21;;;;;;;;;;;;;;;3.57;76.65;101673.44;1905980;75;20452;-80
2021/03/26 00:23:51;;;;;;;;;;;;;;;3.55;76.89;101671.32;1905002;75;21178;-82
2021/03/26 00:26:19;;;;;;;;;;;;;;;3.54;77.16;101677.35;1904785;75;20103;-83
2021/03/26 00:28:53;;;;;;;;;;;;;;;3.52;77.38;101678.66;1907390;75;20096;-82
2021/03/26 00:31:22;;;;;;;;;;;;;;;3.50;77.68;101682.13;1905743;75;20132;-79
2021/03/26 00:33:51;;;;;;;;;;;;;;;3.46;78.07;101676.66;1906972;75;20170;-83
2021/03/26 00:39:49;;;;;;;;;;;;;;;3.41;78.38;101682.33;1718897;77;20179;-78
2021/03/26 00:42:20;;;;;;;;;;;;;;;3.42;78.52;101684.00;1701213;78;20278;-83
2021/03/26 00:48:07;;;;;;;;;;;;;;;3.41;78.44;101683.61;1624622;88;20319;-81
2021/03/26 00:51:34;;;;;;;;;;;;;;;3.42;78.43;101685.28;1621674;88;20871;-81
2021/03/26 00:54:25;;;;;;;;;;;;;;;3.44;78.12;101681.83;1817588;77;20184;-81
2021/03/26 00:56:54;;;;;;;;;;;;;;;3.43;77.98;101685.27;1779536;80;20140;-78
2021/03/26 00:59:24;;;;;;;;;;;;;;;3.44;77.24;101684.39;1775756;80;21285;-80
2021/03/26 01:01:52;;;;;;;;;;;;;;;3.45;77.27;101683.50;1779112;80;20128;-81
2021/03/26 01:04:20;;;;;;;;;;;;;;;3.44;77.22;101685.68;1778405;80;20112;-79
2021/03/26 01:06:49;;;;;;;;;;;;;;;3.41;77.21;101683.17;1779102;80;20171;-82
2021/03/26 01:09:23;;;;;;;;;;;;;;;3.43;77.35;101693.39;1777119;79;20100;31
2021/03/26 01:12:01;;;;;;;;;;;;;;;3.42;77.53;101689.98;1668994;86;21217;-85
2021/03/26 01:14:31;;;;;;;;;;;;;;;3.44;77.62;101688.25;1668079;86;20144;-83
2021/03/26 01:17:02;;;;;;;;;;;;;;;3.47;77.59;101695.03;1668109;86;20203;-83
2021/03/26 01:19:33;;;;;;;;;;;;;;;3.49;77.61;101697.11;1673474;85;20180;-79
2021/03/26 01:22:00;;;;;;;;;;;;;;;3.50;77.67;101697.53;1668212;86;20582;-81
2021/03/26 01:24:33;;;;;;;;;;;;;;;3.48;77.85;101703.11;1667846;86;21224;-85
2021/03/26 01:27:03;;;;;;;;;;;;;;;3.48;77.99;101707.81;1674839;85;20176;-85
2021/03/26 01:29:35;;;;;;;;;;;;;;;3.48;78.19;101706.96;1668697;85;20183;-83
2021/03/26 01:32:08;;;;;;;;;;;;;;;3.46;78.53;101708.73;1669250;86;20144;-83
2021/03/26 01:34:40;;;;;;;;;;;;;;;3.46;78.81;101704.45;1676030;78;20116;-81
2021/03/26 01:37:11;;;;;;;;;;;;;;;3.46;78.97;101711.29;1779918;80;20177;-80
2021/03/26 01:39:50;;;;;;;;;;;;;;;3.43;79.11;101709.64;1757279;78;20732;-79
2021/03/26 01:42:22;;;;;;;;;;;;;;;3.45;79.18;101708.30;1708415;83;20152;-81
2021/03/26 01:44:51;;;;;;;;;;;;;;;3.48;78.90;101713.38;1707973;83;20259;-84
2021/03/26 01:47:27;;;;;;;;;;;;;;;3.52;78.61;101712.45;1707617;83;20506;-81
2021/03/26 01:49:58;;;;;;;;;;;;;;;3.54;77.70;101708.97;1709213;83;21454;-80
2021/03/26 01:52:28;;;;;;;;;;;;;;;3.58;76.60;101707.19;1707959;83;20266;-79
2021/03/26 01:54:57;;;;;;;;;;;;;;;3.59;76.25;101712.30;1688114;84;20177;-83
2021/03/26 01:57:27;;;;;;;;;;;;;;;3.59;76.36;101707.60;1688213;83;20351;-82
2021/03/26 02:00:06;;;;;;;;;;;;;;;3.58;76.46;101708.47;1708699;83;20232;-82
2021/03/26 02:02:36;;;;;;;;;;;;;;;3.58;75.93;101709.31;1709549;83;21216;-83
2021/03/26 02:05:09;;;;;;;;;;;;;;;3.62;75.62;101701.13;1707733;83;20168;-79
2021/03/26 02:07:56;;;;;;;;;;;;;;;3.66;74.84;101702.75;1709690;84;20514;-84
2021/03/26 02:10:27;;;;;;;;;;;;;;;3.70;74.62;101706.95;1709387;84;20215;-83
2021/03/26 02:13:04;;;;;;;;;;;;;;;3.71;73.87;101708.63;1708529;84;20156;-83
2021/03/26 02:15:41;;;;;;;;;;;;;;;3.74;72.71;101703.42;1708116;84;21370;-78
2021/03/26 02:18:21;;;;;;;;;;;;;;;3.77;72.52;101706.36;1706717;84;20208;-77
2021/03/26 02:21:05;;;;;;;;;;;;;;;3.77;72.17;101705.08;1708311;83;20703;-79
2021/03/26 02:23:35;;;;;;;;;;;;;;;3.75;72.47;101710.26;1707538;84;20235;-82
2021/03/26 02:26:20;;;;;;;;;;;;;;;3.73;72.57;101712.02;1709233;80;20192;-80
2021/03/26 02:28:48;;;;;;;;;;;;;;;3.72;72.49;101712.45;1684507;84;21213;-80
2021/03/26 02:31:37;;;;;;;;;;;;;;;3.72;72.50;101711.17;1709347;84;20176;-82
2021/03/26 02:34:06;;;;;;;;;;;;;;;3.70;72.46;101711.63;1708972;84;20612;-82
2021/03/26 02:37:02;;;;;;;;;;;;;;;3.69;72.66;101717.66;1709811;80;20215;31
2021/03/26 02:39:48;;;;;;;;;;;;;;;3.70;72.76;101720.61;1699095;79;20237;-82
2021/03/26 02:42:26;;;;;;;;;;;;;;;3.69;72.72;101715.09;1747340;82;21200;-81
2021/03/26 02:45:19;;;;;;;;;;;;;;;3.72;72.80;101725.73;1725371;82;20158;-83
2021/03/26 02:47:54;;;;;;;;;;;;;;;3.71;73.07;101723.59;1746577;82;20161;-80
2021/03/26 02:50:48;;;;;;;;;;;;;;;3.73;73.32;101729.99;1777948;80;20171;-82
2021/03/26 02:53:38;;;;;;;;;;;;;;;3.71;73.45;101723.59;1784100;80;20115;-81
2021/03/26 02:56:17;;;;;;;;;;;;;;;3.72;73.47;101729.58;1783970;80;21204;-79
2021/03/26 02:58:59;;;;;;;;;;;;;;;3.73;73.43;101730.81;1783611;80;20128;-80
2021/03/26 03:01:36;;;;;;;;;;;;;;;3.76;73.38;101725.23;1784164;80;20131;-80
2021/03/26 03:04:18;;;;;;;;;;;;;;;3.77;73.18;101725.61;1784425;80;20239;-80
2021/03/26 03:06:53;;;;;;;;;;;;;;;3.78;73.05;101725.59;1782884;80;20140;-82
2021/03/26 03:09:36;;;;;;;;;;;;;;;3.77;72.79;101725.17;1777348;78;21211;-81
2021/03/26 03:12:10;;;;;;;;;;;;;;;3.76;72.56;101722.23;1781896;80;20592;-81
2021/03/26 03:14:49;;;;;;;;;;;;;;;3.76;72.51;101722.23;1777955;80;20116;-82
2021/03/26 03:17:50;;;;;;;;;;;;;;;3.74;72.37;101729.09;1782513;80;20132;-82
2021/03/26 03:20:38;;;;;;;;;;;;;;;3.73;72.38;101729.99;1704308;80;20354;-81
2021/03/26 03:23:28;;;;;;;;;;;;;;;3.69;72.38;101730.92;1782865;80;22163;-82
2021/03/26 03:26:17;;;;;;;;;;;;;;;3.66;72.33;101734.41;1766949;80;20156;-82
2021/03/26 03:28:53;;;;;;;;;;;;;;;3.65;72.40;101735.70;1776720;80;20132;-81
2021/03/26 03:31:39;;;;;;;;;;;;;;;3.61;72.37;101738.77;1748410;78;20112;-81
2021/03/26 03:34:28;;;;;;;;;;;;;;;3.61;72.50;101737.48;1782335;80;20104;-78
2021/03/26 03:37:07;;;;;;;;;;;;;;;3.58;72.48;101732.42;1782528;80;21189;-82
2021/03/26 03:39:53;;;;;;;;;;;;;;;3.58;72.48;101737.98;1781462;80;20192;-81
2021/03/26 03:42:41;;;;;;;;;;;;;;;3.56;71.96;101739.31;1773098;78;20228;-84
2021/03/26 03:45:26;;;;;;;;;;;;;;;3.54;71.84;101741.05;1773955;81;20484;-83
2021/03/26 03:47:58;;;;;;;;;;;;;;;3.53;70.92;101741.94;1752274;81;20479;-82
2021/03/26 03:50:31;;;;;;;;;;;;;;;3.55;71.24;101746.59;1774392;81;22226;-76
2021/03/26 03:53:07;;;;;;;;;;;;;;;3.53;71.25;101748.36;1773121;81;21021;-75
2021/03/26 03:55:40;;;;;;;;;;;;;;;3.50;71.21;101748.85;1749436;81;20109;-78
2021/03/26 03:58:36;;;;;;;;;;;;;;;3.47;70.96;101750.20;1773319;81;20224;-76
2021/03/26 04:01:28;;;;;;;;;;;;;;;3.45;70.78;101746.36;1773233;81;20306;-78
2021/03/26 04:07:06;;;;;;;;;;;;;;;3.39;71.34;101750.33;1773478;81;20561;-81
2021/03/26 04:09:39;;;;;;;;;;;;;;;3.37;71.62;101754.66;1773184;81;20128;-80
2021/03/26 04:12:20;;;;;;;;;;;;;;;3.35;70.91;101756.39;1771899;81;20112;-78
2021/03/26 04:14:59;;;;;;;;;;;;;;;3.34;70.50;101759.00;1773159;81;20305;-77
2021/03/26 04:17:52;;;;;;;;;;;;;;;3.31;70.52;101763.76;1773129;79;20203;-77
2021/03/26 04:20:42;;;;;;;;;;;;;;;3.33;70.19;101768.41;1922266;73;20721;-77
2021/03/26 04:23:14;;;;;;;;;;;;;;;3.32;70.11;101774.88;1891797;76;20131;-81
2021/03/26 04:25:47;;;;;;;;;;;;;;;3.31;70.24;101777.87;1887519;76;21044;-80
2021/03/26 04:28:35;;;;;;;;;;;;;;;3.30;70.44;101774.88;1891983;76;20104;-80
2021/03/26 04:31:17;;;;;;;;;;;;;;;3.30;70.71;101780.02;1870009;76;20140;-81
2021/03/26 04:33:52;;;;;;;;;;;;;;;3.26;70.97;101774.52;1890339;76;20237;-79
2021/03/26 04:36:24;;;;;;;;;;;;;;;3.25;71.12;101778.41;1857741;76;20140;-79
2021/03/26 04:38:57;;;;;;;;;;;;;;;3.25;71.03;101783.55;1886671;76;21352;-77
2021/03/26 04:41:45;;;;;;;;;;;;;;;3.26;71.12;101782.22;1892367;76;20179;-85
2021/03/26 04:44:19;;;;;;;;;;;;;;;3.27;70.86;101782.63;1892744;76;20128;-78
2021/03/26 04:46:58;;;;;;;;;;;;;;;3.28;70.76;101785.63;1892057;76;20155;-81
2021/03/26 04:49:36;;;;;;;;;;;;;;;3.28;70.69;101783.05;1890088;76;20140;-79
2021/03/26 04:52:12;;;;;;;;;;;;;;;3.30;70.71;101790.70;1892026;76;20560;-79
2021/03/26 04:55:09;;;;;;;;;;;;;;;3.31;70.25;101794.54;1891113;76;20216;-80
2021/03/26 04:58:03;;;;;;;;;;;;;;;3.34;70.30;101789.78;1892210;76;20144;-77
2021/03/26 05:00:39;;;;;;;;;;;;;;;3.36;70.51;101795.72;1890219;76;20108;-81
2021/03/26 05:03:13;;;;;;;;;;;;;;;3.38;70.78;101800.41;1891783;76;20219;-79
2021/03/26 05:05:45;;;;;;;;;;;;;;;3.41;70.64;101796.50;1867086;76;21191;-85
2021/03/26 05:08:27;;;;;;;;;;;;;;;3.43;70.65;101799.87;1892232;76;20108;-83
2021/03/26 05:11:07;;;;;;;;;;;;;;;3.46;70.71;101799.81;1886632;76;20300;-80
2021/03/26 05:13:41;;;;;;;;;;;;;;;3.49;70.36;101798.05;1892643;76;20143;-77
2021/03/26 05:16:17;;;;;;;;;;;;;;;3.54;70.51;101800.53;1891628;76;20525;-77
2021/03/26 05:19:06;;;;;;;;;;;;;;;3.62;70.49;101807.20;1922538;73;20289;-84
2021/03/26 05:21:37;;;;;;;;;;;;;;;3.62;70.16;101806.35;1892426;75;20135;-83
2021/03/26 05:24:38;;;;;;;;;;;;;;;3.67;70.06;101812.23;1835228;77;21192;-81
2021/03/26 05:27:25;;;;;;;;;;;;;;;3.71;70.20;101813.44;1891700;76;20121;-78
2021/03/26 05:29:55;;;;;;;;;;;;;;;3.76;69.42;101810.80;1891861;75;20183;-79
2021/03/26 05:32:45;;;;;;;;;;;;;;;3.78;69.28;101812.88;1892097;75;20470;-84
2021/03/26 05:35:37;;;;;;;;;;;;;;;3.81;69.13;101820.52;1805000;76;20544;-79
2021/03/26 05:38:25;;;;;;;;;;;;;;;3.85;68.50;101819.59;1892444;76;21254;-80
2021/03/26 05:41:21;;;;;;;;;;;;;;;3.86;68.33;101817.41;1891927;76;20120;-79
2021/03/26 05:44:19;;;;;;;;;;;;;;;3.88;67.95;101824.67;1885165;76;20147;-75
2021/03/26 05:47:18;;;;;;;;;;;;;;;3.87;68.24;101820.83;1891885;75;20211;-80
2021/03/26 05:50:08;;;;;;;;;;;;;;;3.86;68.24;101823.02;1890512;76;20294;-79
2021/03/26 05:52:46;;;;;;;;;;;;;;;3.89;68.10;101825.09;1891669;76;22388;-77
2021/03/26 05:55:43;;;;;;;;;;;;;;;3.92;68.24;101830.59;1892003;75;20139;-77
2021/03/26 05:58:22;;;;;;;;;;;;;;;3.94;68.38;101825.83;1892214;76;20140;-77
2021/03/26 06:01:11;;;;;;;;;;;;;;;3.98;68.17;101828.75;1891857;75;20238;-78
2021/03/26 06:04:03;;;;;;;;;;;;;;;4.02;67.91;101834.20;1886931;76;20241;-79
2021/03/26 06:07:26;;;;;;;;;;;;;;;4.10;67.34;101836.19;1892002;76;21184;-82
2021/03/26 06:10:29;;;;;;;;;;;;;;;4.21;66.56;101836.80;1856189;76;20682;-81
2021/03/26 06:13:45;;;;;;;;;;;;;;;4.31;66.25;101840.48;1891816;76;20120;-82
2021/03/26 06:16:40;;;;;;;;;;;;;;;4.42;66.00;101841.94;1892429;76;20143;-82
2021/03/26 06:19:46;;;;;;;;;;;;;;;4.54;64.63;101840.80;1892143;76;20159;-75
2021/03/26 06:22:39;;;;;;;;;;;;;;;4.66;64.17;101846.95;1891757;74;21357;-77
2021/03/26 06:25:17;;;;;;;;;;;;;;;4.79;63.64;101851.78;1890831;76;20227;-77
2021/03/26 06:28:11;;;;;;;;;;;;;;;4.89;61.78;101853.70;1892167;76;20124;-80
2021/03/26 06:31:08;;;;;;;;;;;;;;;5.00;60.96;101853.45;1794657;78;20507;-79
2021/03/26 06:33:46;;;;;;;;;;;;;;;5.10;60.38;101858.35;1789923;78;20616;-75
2021/03/26 06:36:38;;;;;;;;;;;;;;;5.19;60.52;101862.42;1829530;76;21210;-80
2021/03/26 06:39:10;;;;;;;;;;;;;;;5.28;60.00;101860.90;1890978;74;20108;-77
2021/03/26 06:41:53;;;;;;;;;;;;;;;5.37;59.09;101857.23;1891455;76;20228;-80
2021/03/26 06:44:58;;;;;;;;;;;;;;;5.41;59.77;101862.28;1891784;76;20160;-80
2021/03/26 06:47:51;;;;;;;;;;;;;;;5.48;59.29;101859.11;1889254;76;20106;-78
2021/03/26 06:50:45;;;;;;;;;;;;;;;5.54;58.83;101860.23;1883321;76;21174;-78
2021/03/26 06:53:36;;;;;;;;;;;;;;;5.61;57.89;101860.05;1864437;75;20273;-79
2021/03/26 06:56:27;;;;;;;;;;;;;;;5.69;57.95;101856.80;1858008;76;20523;-78
2021/03/26 06:59:21;;;;;;;;;;;;;;;5.80;58.33;101865.55;1891451;74;20199;-79
2021/03/26 07:02:17;;;;;;;;;;;;;;;5.90;57.22;101867.45;1891331;76;20124;-82
2021/03/26 07:05:09;;;;;;;;;;;;;;;6.02;55.47;101868.40;1890682;76;21912;-77
2021/03/26 07:08:06;;;;;;;;;;;;;;;6.07;55.71;101867.81;1848839;76;20358;-80
2021/03/26 07:10:54;;;;;;;;;;;;;;;6.13;55.55;101868.92;1891429;74;20147;-79
2021/03/26 07:13:29;;;;;;;;;;;;;;;6.23;56.14;101869.92;1890089;74;20506;-78
2021/03/26 07:16:13;;;;;;;;;;;;;;;6.33;55.52;101871.78;1889729;74;20120;-78
2021/03/26 07:19:04;;;;;;;;;;;;;;;6.35;54.35;101876.00;1878281;75;21172;-75
2021/03/26 07:21:55;;;;;;;;;;;;;;;6.36;54.00;101878.98;1889490;74;20604;-81
2021/03/26 07:24:55;;;;;;;;;;;;;;;6.47;54.27;101886.42;1885072;76;20733;-78
2021/03/26 07:27:51;;;;;;;;;;;;;;;6.57;52.46;101885.27;1875302;75;20265;-82
2021/03/26 07:30:23;;;;;;;;;;;;;;;6.69;53.39;101890.05;1870144;75;20259;-79
2021/03/26 07:33:04;;;;;;;;;;;;;;;6.85;52.53;101890.41;1871798;75;22287;-77
2021/03/26 07:36:05;;;;;;;;;;;;;;;6.94;53.17;101892.70;1856994;76;20289;-82
2021/03/26 07:38:55;;;;;;;;;;;;;;;7.04;51.15;101894.55;1861731;76;20229;-80
2021/03/26 07:41:30;;;;;;;;;;;;;;;7.13;51.06;101898.97;1796435;77;20249;-80
2021/03/26 07:44:32;;;;;;;;;;;;;;;7.26;50.69;101900.27;1857441;76;20297;-79
2021/03/26 07:47:31;;;;;;;;;;;;;;;7.33;49.89;101900.47;1875423;76;20194;-80
2021/03/26 07:50:09;;;;;;;;;;;;;;;7.47;49.15;101903.05;1889631;74;20235;-79
2021/03/26 07:52:59;;;;;;;;;;;;;;;7.59;48.76;101909.08;1890260;76;20188;-76
2021/03/26 07:55:42;;;;;;;;;;;;;;;7.70;49.24;101912.13;1851332;76;20292;-80
2021/03/26 07:58:36;;;;;;;;;;;;;;;7.77;48.62;101908.45;1817938;77;20279;-79
2021/03/26 08:01:16;;;;;;;;;;;;;;;7.89;48.59;101907.57;1834900;77;21352;-79
2021/03/26 08:04:13;;;;;;;;;;;;;;;8.02;49.25;101905.84;1833835;78;20595;-79
2021/03/26 08:07:03;;;;;;;;;;;;;;;8.19;48.65;101908.23;1773587;78;20557;-78
2021/03/26 08:09:55;;;;;;;;;;;;;;;8.26;46.98;101912.73;1832883;78;20280;-76
2021/03/26 08:12:44;;;;;;;;;;;;;;;8.19;47.06;101906.09;1833497;76;20286;-80
2021/03/26 08:15:25;;;;;;;;;;;;;;;8.22;47.07;101911.99;1833666;78;21198;-79
2021/03/26 08:18:02;;;;;;;;;;;;;;;8.27;46.55;101904.90;1835221;76;20154;-78
2021/03/26 08:20:47;;;;;;;;;;;;;;;8.32;46.86;101908.21;1843405;78;20328;-73
2021/03/26 08:23:31;;;;;;;;;;;;;;;8.44;47.44;101914.22;1805127;79;20309;-79
2021/03/26 08:26:05;;;;;;;;;;;;;;;8.46;46.51;101911.11;1805840;79;20289;-78
2021/03/26 08:29:01;;;;;;;;;;;;;;;8.35;46.05;101911.13;1808985;79;21355;-81
2021/03/26 08:31:44;;;;;;;;;;;;;;;8.33;47.33;101915.05;1805717;79;20280;-76
2021/03/26 08:34:22;;;;;;;;;;;;;;;8.42;47.13;101913.89;1800232;79;20299;-81
2021/03/26 08:37:24;;;;;;;;;;;;;;;8.44;46.89;101915.52;1917696;73;20179;-77
2021/03/26 08:39:58;;;;;;;;;;;;;;;8.39;47.48;101913.52;1890411;76;20660;-76
2021/03/26 08:42:42;;;;;;;;;;;;;;;8.34;46.90;101919.33;1890344;75;21174;-76
2021/03/26 08:45:17;;;;;;;;;;;;;;;8.45;47.89;101922.38;1890445;76;20508;-79
2021/03/26 08:47:48;;;;;;;;;;;;;;;8.67;46.87;101921.56;1890421;76;20192;-82
2021/03/26 08:50:26;;;;;;;;;;;;;;;8.80;45.91;101926.22;1891072;76;20491;-78
2021/03/26 08:53:11;;;;;;;;;;;;;;;8.95;46.05;101924.77;1890723;76;20564;-77
2021/03/26 08:55:48;;;;;;;;;;;;;;;9.12;45.95;101924.95;1890443;76;20650;-79
2021/03/26 08:58:32;;;;;;;;;;;;;;;9.23;44.71;101920.63;1890325;75;20155;-84
2021/03/26 09:01:29;;;;;;;;;;;;;;;9.40;45.66;101913.87;1887610;74;20179;-79
2021/03/26 09:04:23;;;;;;;;;;;;;;;9.66;43.79;101911.48;1889529;76;20179;-81
2021/03/26 09:06:58;;;;;;;;;;;;;;;9.91;43.61;101908.68;1888005;76;20541;-78
2021/03/26 09:09:34;;;;;;;;;;;;;;;10.33;41.37;101904.23;1889735;76;20282;-78
2021/03/26 09:12:05;;;;;;;;;;;;;;;10.58;40.04;101902.64;1890492;75;20698;-77
2021/03/26 09:14:48;;;;;;;;;;;;;;;10.79;38.19;101906.82;1890440;76;20288;-78
2021/03/26 09:17:45;;;;;;;;;;;;;;;10.87;39.18;101911.67;1878633;76;20586;-79
2021/03/26 09:20:29;;;;;;;;;;;;;;;10.96;36.65;101909.47;1802246;78;20646;-78
2021/03/26 09:23:00;;;;;;;;;;;;;;;10.84;35.49;101906.17;1799300;79;22044;-78
2021/03/26 09:25:54;;;;;;;;;;;;;;;10.84;35.77;101913.95;1808985;79;20322;-77
2021/03/26 09:28:33;;;;;;;;;;;;;;;10.98;36.05;101905.48;1816513;77;20333;-82
2021/03/26 09:31:10;;;;;;;;;;;;;;;11.19;35.44;101908.37;1782712;77;20254;-79
2021/03/26 09:33:51;;;;;;;;;;;;;;;11.13;34.96;101916.02;1812235;78;20294;-84
2021/03/26 09:36:21;;;;;;;;;;;;;;;11.10;35.75;101903.63;1834338;76;21195;-79
2021/03/26 09:38:53;;;;;;;;;;;;;;;11.38;36.44;101906.55;1818200;77;20133;-82
2021/03/26 09:41:32;;;;;;;;;;;;;;;11.64;35.23;101898.30;1842572;77;20594;-83
2021/03/26 09:44:08;;;;;;;;;;;;;;;11.69;34.10;101901.48;1827910;77;20203;-78
2021/03/26 09:46:50;;;;;;;;;;;;;;;11.49;34.95;101902.94;1808516;79;20291;-77
2021/03/26 09:49:26;;;;;;;;;;;;;;;11.41;33.60;101903.80;1843692;78;21187;-80
2021/03/26 09:52:19;;;;;;;;;;;;;;;11.60;33.18;101901.95;1844987;76;20242;-78
2021/03/26 09:54:56;;;;;;;;;;;;;;;12.35;32.77;101891.58;1843729;78;20528;-83
2021/03/26 09:57:29;;;;;;;;;;;;;;;12.94;32.76;101898.70;1811755;79;20288;-80
2021/03/26 10:00:16;;;;;;;;;;;;;;;13.33;30.11;101906.90;1811979;79;20219;-78
2021/03/26 10:03:07;;;;;;;;;;;;;;;14.07;30.80;101893.78;1814190;78;20272;-78
2021/03/26 10:05:40;;;;;;;;;;;;;;;14.26;28.63;101896.94;1812105;79;20281;-80
2021/03/26 10:10:55;;;;;;;;;;;;;;;14.04;29.86;101896.09;1730003;79;20271;-79
2021/03/26 10:13:21;;;;;;;;;;;;;;;14.40;29.94;101883.03;1811968;78;20264;-76
2021/03/26 10:15:59;;;;;;;;;;;;;;;14.15;28.51;101895.44;1813247;79;21820;-81
2021/03/26 10:18:41;;;;;;;;;;;;;;;14.07;29.54;101890.67;1812604;79;20328;-77
2021/03/26 10:21:21;;;;;;;;;;;;;;;14.51;29.03;101894.97;1811020;79;20199;-79
2021/03/26 10:24:06;;;;;;;;;;;;;;;14.91;27.92;101894.10;1810280;79;20315;-79
2021/03/26 10:26:43;;;;;;;;;;;;;;;15.13;28.33;101889.16;1810284;79;20291;-79
2021/03/26 10:29:32;;;;;;;;;;;;;;;15.02;28.22;101895.56;1810114;79;21191;-80
2021/03/26 10:32:27;;;;;;;;;;;;;;;14.47;28.50;101895.63;1810901;79;20212;-79
2021/03/26 10:34:58;;;;;;;;;;;;;;;14.10;29.21;101887.06;1751631;79;20306;-78
2021/03/26 10:37:32;;;;;;;;;;;;;;;13.94;29.02;101888.93;1802309;78;20292;-83
2021/03/26 10:40:39;;;;;;;;;;;;;;;13.77;30.03;101893.84;1800645;79;20335;-79
2021/03/26 10:43:30;;;;;;;;;;;;;;;13.66;28.39;101908.83;1801085;79;21433;-83
2021/03/26 10:46:23;;;;;;;;;;;;;;;13.34;28.68;101904.64;1800812;78;20538;-81
2021/03/26 10:49:04;;;;;;;;;;;;;;;13.42;28.89;101900.30;1800912;79;20902;-82
2021/03/26 10:51:57;;;;;;;;;;;;;;;13.67;29.30;101907.06;1777007;80;20524;-81
2021/03/26 10:54:45;;;;;;;;;;;;;;;14.54;28.33;101895.63;1817103;77;20298;-78
2021/03/26 10:57:36;;;;;;;;;;;;;;;15.21;27.05;101899.13;1818067;78;22242;-80
2021/03/26 11:00:21;;;;;;;;;;;;;;;15.36;27.58;101894.18;1817806;79;20479;-82
2021/03/26 11:02:57;;;;;;;;;;;;;;;15.36;27.85;101895.48;1817956;79;20157;-80
2021/03/26 11:05:38;;;;;;;;;;;;;;;15.31;26.91;101889.27;1781009;80;20305;-75
2021/03/26 11:08:31;;;;;;;;;;;;;;;15.75;26.20;101889.39;1818005;79;20374;-78
2021/03/26 11:11:13;;;;;;;;;;;;;;;16.41;27.08;101875.99;1779275;80;21198;-77
2021/03/26 11:14:02;;;;;;;;;;;;;;;17.32;25.31;101875.41;1817973;78;20192;-79
2021/03/26 11:16:51;;;;;;;;;;;;;;;17.08;25.21;101871.97;1818149;79;20415;-76
2021/03/26 11:19:31;;;;;;;;;;;;;;;17.21;24.82;101874.05;1817898;79;20279;-78
2021/03/26 11:22:19;;;;;;;;;;;;;;;16.30;24.96;101863.67;1818187;79;20297;-79
2021/03/26 11:25:04;;;;;;;;;;;;;;;15.71;25.98;101873.52;1818047;78;21177;-78
2021/03/26 11:27:38;;;;;;;;;;;;;;;16.41;25.83;101852.41;1817673;79;20290;-81
2021/03/26 11:30:17;;;;;;;;;;;;;;;17.01;24.08;101868.63;1818055;78;20295;-84
2021/03/26 11:32:48;;;;;;;;;;;;;;;16.97;25.13;101860.61;1818046;78;20513;-81
2021/03/26 11:35:18;;;;;;;;;;;;;;;17.16;23.96;101856.98;1817958;77;20224;-79
2021/03/26 11:37:57;;;;;;;;;;;;;;;16.66;23.91;101851.04;1817646;77;21392;-79
2021/03/26 11:40:48;;;;;;;;;;;;;;;16.46;25.18;101853.41;1818228;79;20209;-83
2021/03/26 11:43:18;;;;;;;;;;;;;;;17.54;24.75;101843.59;1818296;78;20279;-81
2021/03/26 11:46:06;;;;;;;;;;;;;;;18.10;23.13;101847.09;1818221;78;20232;-83
2021/03/26 11:48:51;;;;;;;;;;;;;;;17.71;23.37;101843.18;1818068;78;20271;-82
2021/03/26 11:51:45;;;;;;;;;;;;;;;18.11;24.79;101835.16;1819670;78;22239;-80
2021/03/26 11:54:32;;;;;;;;;;;;;;;18.70;23.12;101831.70;1819505;79;20208;-82
2021/03/26 11:57:11;;;;;;;;;;;;;;;18.31;22.89;101836.22;1819895;78;20200;-78
2021/03/26 11:59:53;;;;;;;;;;;;;;;17.93;23.45;101832.67;1819449;78;20588;-78
2021/03/26 12:02:30;;;;;;;;;;;;;;;17.70;23.48;101832.30;1819339;79;20260;-78
2021/03/26 12:05:08;;;;;;;;;;;;;;;17.56;23.93;101828.58;1820268;78;21178;-80
2021/03/26 12:07:44;;;;;;;;;;;;;;;17.47;24.28;101822.23;1815352;77;20315;-77
2021/03/26 12:10:37;;;;;;;;;;;;;;;17.40;23.94;101832.36;1820683;78;20268;-84
2021/03/26 12:13:19;;;;;;;;;;;;;;;17.69;23.59;101824.06;1819580;77;20287;-80
2021/03/26 12:16:15;;;;;;;;;;;;;;;18.08;23.07;101819.64;1819751;77;20311;-84
2021/03/26 12:19:00;;;;;;;;;;;;;;;18.04;23.52;101822.62;1820783;79;21246;-80
2021/03/26 12:22:00;;;;;;;;;;;;;;;18.00;23.68;101812.83;1820802;78;20164;-81
2021/03/26 12:24:45;;;;;;;;;;;;;;;18.49;23.07;101805.81;1820948;79;20180;-78
2021/03/26 12:27:29;;;;;;;;;;;;;;;18.97;23.44;101804.45;1820710;79;20818;-80
2021/03/26 12:30:13;;;;;;;;;;;;;;;19.67;22.95;101799.83;1820847;78;20145;-86
2021/03/26 12:33:01;;;;;;;;;;;;;;;20.37;22.23;101805.05;1750028;80;21370;-81
2021/03/26 12:35:42;;;;;;;;;;;;;;;20.31;21.04;101801.64;1850630;77;20261;-81
2021/03/26 12:38:39;;;;;;;;;;;;;;;20.17;20.99;101798.03;1852487;76;20277;-79
2021/03/26 12:41:14;;;;;;;;;;;;;;;19.86;21.23;101792.00;1851939;77;20324;-79
2021/03/26 12:43:47;;;;;;;;;;;;;;;19.03;21.97;101798.67;1852659;77;20277;-78
2021/03/26 12:46:22;;;;;;;;;;;;;;;18.34;22.97;101807.06;1853423;76;21660;-79
2021/03/26 12:48:55;;;;;;;;;;;;;;;18.42;24.00;101804.62;1853089;76;20324;-80
2021/03/26 12:51:38;;;;;;;;;;;;;;;18.65;23.53;101797.54;1853384;76;20273;-79
2021/03/26 12:54:13;;;;;;;;;;;;;;;18.59;23.19;101798.89;1852776;76;20285;-80
2021/03/26 12:56:53;;;;;;;;;;;;;;;18.98;22.77;101794.27;1854094;77;20250;-79
2021/03/26 12:59:28;;;;;;;;;;;;;;;19.30;23.22;101784.17;1853191;77;21447;-80
2021/03/26 13:02:24;;;;;;;;;;;;;;;19.54;23.12;101795.26;1851985;77;20294;-80
2021/03/26 13:04:58;;;;;;;;;;;;;;;19.67;22.38;101788.45;1851840;76;20138;-78
2021/03/26 13:07:47;;;;;;;;;;;;;;;19.46;22.22;101793.27;1850789;76;20618;-78
2021/03/26 13:10:29;;;;;;;;;;;;;;;18.61;22.66;101793.48;1851936;76;20229;-76
2021/03/26 13:13:03;;;;;;;;;;;;;;;17.79;23.57;101793.05;1852434;76;21179;-79
2021/03/26 13:15:32;;;;;;;;;;;;;;;17.41;24.58;101784.17;1852554;76;20309;-79
2021/03/26 13:18:04;;;;;;;;;;;;;;;17.11;25.10;101786.50;1852864;76;20163;-77
2021/03/26 13:20:51;;;;;;;;;;;;;;;16.70;26.07;101794.83;1852649;76;20182;-79
2021/03/26 13:23:21;;;;;;;;;;;;;;;16.43;26.58;101787.16;1852811;77;20269;-76
2021/03/26 13:25:54;;;;;;;;;;;;;;;16.34;26.75;101790.92;1821162;77;21199;-78
2021/03/26 13:28:29;;;;;;;;;;;;;;;16.66;26.42;101793.84;1852811;76;20122;-76
2021/03/26 13:31:08;;;;;;;;;;;;;;;16.91;25.75;101793.23;1852777;77;20626;-78
2021/03/26 13:33:53;;;;;;;;;;;;;;;16.79;27.07;101794.15;1852736;76;20158;-78
2021/03/26 13:36:42;;;;;;;;;;;;;;;16.68;26.84;101791.97;1823222;77;20520;-81
2021/03/26 13:39:19;;;;;;;;;;;;;;;16.52;26.30;101790.08;1818287;78;22111;-81
2021/03/26 13:41:57;;;;;;;;;;;;;;;16.65;26.01;101798.28;1822374;78;20486;-80
2021/03/26 13:44:32;;;;;;;;;;;;;;;16.81;25.78;101786.19;1803456;78;20221;-83
2021/03/26 13:47:06;;;;;;;;;;;;;;;16.74;26.28;101792.36;1790431;80;20542;-82
2021/03/26 13:49:36;;;;;;;;;;;;;;;16.79;26.48;101789.37;1790185;79;20226;-79
2021/03/26 13:52:11;;;;;;;;;;;;;;;16.83;26.04;101795.60;1762040;80;21192;-78
2021/03/26 13:54:41;;;;;;;;;;;;;;;16.59;26.34;101791.34;1790342;80;20209;-84
2021/03/26 13:57:21;;;;;;;;;;;;;;;16.30;27.18;101793.42;1791085;80;20194;-82
2021/03/26 13:59:51;;;;;;;;;;;;;;;15.98;28.03;101797.49;1789927;79;20496;-81
2021/03/26 14:02:27;;;;;;;;;;;;;;;15.71;27.74;101792.39;1790312;80;20222;-80
2021/03/26 14:05:01;;;;;;;;;;;;;;;15.55;27.56;101798.31;1786174;80;21901;-79
2021/03/26 14:07:36;;;;;;;;;;;;;;;15.82;27.32;101798.58;1790411;80;20146;-80
2021/03/26 14:10:13;;;;;;;;;;;;;;;16.37;26.92;101797.25;1790457;80;20293;-82
2021/03/26 14:12:46;;;;;;;;;;;;;;;17.11;26.19;101794.36;1790107;80;20571;-79
2021/03/26 14:15:23;;;;;;;;;;;;;;;17.72;24.36;101787.07;1790279;80;20336;-85